East Templeton, Massachusetts
Current Conditions -  °F | °C
As of 4:52 PM on Monday 24 Nov 2014 (Local Time) from KORE Reporting Station
Overcast Overcast  
Wind Chill: 62°   Ceiling: 1800
Heat Index: 62°   Visibility: 10mi
Dew Point: 57°   Wind: 16mph
Humidity: 84%   Direction: 200°SSW
Pressure: 29.57"   Gusts: 25mph
Location:  42.56°N, 72.04°W
Report Text: KORE 242152Z AUTO 20014G22KT 10SM OVC018 17/14 A2957 RMK AO2 SLP014 T01670139
Loading
Personal Weather Stations






























Interactive Weather Map New forecast layout! Learn more

10-Day Weather Forecast

Advertisements
Track Severe Weather on mobile